Ashland, ME (04737)

1:31 PM EDT on July 23, 2014 (GMT -0400)
Northern Maine Regional At Presque Isle (KPQI) Elev 479 ft | 46.69 °N, 68.04 °W | Change Station

Current weather conditions updated 16 minutes ago

Overcast
Overcast
82 °F
Feels Like 84 °F
N
12
Wind Variable Wind from SW
Gusts 17 mph

Today is forecast to be nearly the same temperature as yesterday. Rain and thunder.

Today
High -- | Low -- °F
--% Chance of Precip.
Yesterday
High -- | Low -- °F
Precip. -- in
5:08 AM 8:20 PM
Waning Crescent, 9% visible
Pressure 29.67 in
Visibility 10.0 miles
Clouds Few 4600 ft
Mostly Cloudy 6000 ft
Overcast 7000 ft
Heat Index 84 °F
Dew Point 64 °F
Humidity 54%
Rainfall 0.00 in
Snow Depth Not available.
UV 3 out of 12
Pollen 5.20 out of 12
Ozone Good
PM2.5 Moderate
Flu Activity Not available.
METAR KPQI 231715Z AUTO 22010G15KT 10SM FEW046 BKN060 OVC070 28/18 A2967 RMK AO1

More Conditions Fewer Conditions

Pressure 29.67 in
Visibility 10.0 miles
Clouds Few 4600 ft
Mostly Cloudy 6000 ft
Overcast 7000 ft
Heat Index 84 °F
Dew Point 64 °F
Humidity 54%
Rainfall 0.00 in
Snow Depth Not available.
UV 3 out of 12
Pollen 5.20 out of 12
Ozone Good
PM2.5 Moderate
Flu Activity Not available.
METAR KPQI 231715Z AUTO 22010G15KT 10SM FEW046 BKN060 OVC070 28/18 A2967 RMK AO1

More Conditions Fewer Conditions

10-Day Weather Forecast

Almanac

Astronomy

Jul. 23, 2014 Rise Set
Actual Time 5:08 AM EDT 8:20 PM EDT
Civil Twilight 4:31 AM EDT 8:56 PM EDT
Nautical Twilight 3:44 AM EDT 9:43 PM EDT
Astronomical Twilight 2:44 AM EDT 10:42 PM EDT
Moon 2:25 AM EDT 5:45 PM EDT
Length of Visible Light 16h 25m
Length of Day
15h 12m
Tomorrow will be 2m 13s shorter.
Waning Crescent, 9% of the Moon is Illuminated
Today
Waning Crescent
Jul 26
New
Aug 3
First Quarter
Aug 10
Full
Aug 17
Last Quarter

Today's Extremes

State Highs State Lows

Community

WunderPhotos

Upload Photos

1,736,684 photos uploaded!

Nearby

Air Quality

  Air Quality AQ Index Pollutant
Yesterday Good
PM2.5
Yesterday Good
OZONE
Current Moderate
PM2.5
Current Good
OZONE
Wednesday Moderate
PM2.5
Wednesday Good
OZONE
Thursday Good
OZONE
Thursday Good
PM2.5
Friday Good
OZONE
Friday Good
PM2.5
Saturday Good
OZONE
Saturday Good
PM2.5

Snow Depth

Station Depth Elevation
No new snow has been reported.

Earthquake Activity

City Distance Mag. Time & Date
No recent earthquake activity has been reported nearby.
Minimum magnitude displayed is 2.5.

Coastal Water Temperatures

Place Temperature
No Stations Reporting

Nearby Weather Stations

There are no personal weather stations in this area.